Time;durP1;ratioP1;P1;durP2;ratioP2;P2;SDS_P1;SDS_P2;PMS_P1;PMS_P2;Temp;Humidity;BMP_temperature;BMP_pressure;BME280_temperature;BME280_humidity;BME280_pressure;Samples;Min_cycle;Max_cycle;Signal;HPM_P1;HPM_P2
2023/08/02 00:00:06;;;;;;;3.00;1.92;;;15.80;99.90;;;;;;5088782;28;20203;-69
2023/08/02 00:02:33;;;;;;;5.45;2.13;;;15.80;99.90;;;;;;5069917;28;20675;-69
2023/08/02 00:05:00;;;;;;;3.75;1.73;;;15.90;99.90;;;;;;5071500;28;20292;-69
2023/08/02 00:07:27;;;;;;;4.60;2.10;;;15.90;99.90;;;;;;5092171;28;20202;-69
2023/08/02 00:09:55;;;;;;;3.28;1.80;;;15.80;99.90;;;;;;5092517;28;20226;-69
2023/08/02 00:12:22;;;;;;;3.80;1.50;;;;;;;;;;5091323;28;20686;-69
2023/08/02 00:14:49;;;;;;;2.80;2.00;;;15.90;99.90;;;;;;5095945;28;20199;-69
2023/08/02 00:17:16;;;;;;;3.45;1.80;;;15.50;99.90;;;;;;5089392;28;20229;-70
2023/08/02 00:19:43;;;;;;;3.45;1.85;;;15.90;99.90;;;;;;5071562;28;20215;-69
2023/08/02 00:22:10;;;;;;;2.78;1.80;;;15.90;99.90;;;;;;5092411;28;20195;-70
2023/08/02 00:24:36;;;;;;;3.33;1.73;;;16.10;99.90;;;;;;5092579;28;20192;-69
2023/08/02 00:27:05;;;;;;;2.50;1.65;;;16.00;99.90;;;;;;5097300;28;20200;-69
2023/08/02 00:29:32;;;;;;;4.40;2.00;;;15.90;99.90;;;;;;5092838;28;20235;-69
2023/08/02 00:31:58;;;;;;;7.10;2.17;;;15.90;99.90;;;;;;5095163;28;20199;-69
2023/08/02 00:34:27;;;;;;;3.58;2.20;;;15.50;99.90;;;;;;5074730;28;20212;-69
2023/08/02 00:36:53;;;;;;;2.90;1.75;;;15.80;99.90;;;;;;5096809;28;20204;-69
2023/08/02 00:39:20;;;;;;;2.80;1.90;;;15.90;99.90;;;;;;5089393;28;20222;-70
2023/08/02 00:41:47;;;;;;;2.28;1.60;;;15.80;99.90;;;;;;5088502;28;20223;-69
2023/08/02 00:44:15;;;;;;;3.58;1.83;;;15.90;99.90;;;;;;5094533;28;21370;-69
2023/08/02 00:46:42;;;;;;;2.40;1.35;;;15.90;99.90;;;;;;5087034;28;20209;-69
2023/08/02 00:49:10;;;;;;;2.75;1.77;;;15.90;99.90;;;;;;5096885;28;20218;-70
2023/08/02 00:51:37;;;;;;;7.35;2.17;;;15.90;99.90;;;;;;5075477;28;20207;-69
2023/08/02 00:54:05;;;;;;;7.03;1.90;;;15.80;99.90;;;;;;5092588;28;20206;-69
2023/08/02 00:56:33;;;;;;;1.67;1.58;;;15.90;99.90;;;;;;5092955;28;21004;-69
2023/08/02 00:58:59;;;;;;;4.10;1.95;;;15.90;99.90;;;;;;5097198;28;20223;-69
2023/08/02 01:01:28;;;;;;;2.67;1.50;;;15.90;99.90;;;;;;5082972;28;20200;-70
2023/08/02 01:03:55;;;;;;;2.58;1.70;;;15.80;99.90;;;;;;5096512;28;20200;-69
2023/08/02 01:06:29;;;;;;;2.22;1.63;;;16.00;99.90;;;;;;5071862;28;20222;-70
2023/08/02 01:09:01;;;;;;;3.15;1.90;;;15.90;99.90;;;;;;5095657;28;20949;-69
2023/08/02 01:11:31;;;;;;;4.03;1.92;;;15.80;99.90;;;;;;5093922;28;20284;-69
2023/08/02 01:13:59;;;;;;;4.38;1.75;;;15.90;99.90;;;;;;5096610;28;20201;-69
2023/08/02 01:16:28;;;;;;;8.00;1.95;;;15.80;99.90;;;;;;5092471;28;20690;-69
2023/08/02 01:18:55;;;;;;;6.68;1.95;;;15.80;99.90;;;;;;5086729;28;20226;-69
2023/08/02 01:21:23;;;;;;;3.25;1.80;;;16.30;99.90;;;;;;5075366;28;20195;-70
2023/08/02 01:23:50;;;;;;;5.75;1.85;;;15.90;99.90;;;;;;5095297;28;20562;-69
2023/08/02 01:26:18;;;;;;;1.95;1.75;;;15.80;99.90;;;;;;5094914;28;20201;-70
2023/08/02 01:28:50;;;;;;;2.95;2.10;;;15.80;99.90;;;;;;5095789;28;20314;-69
2023/08/02 01:31:17;;;;;;;3.50;2.00;;;15.90;99.90;;;;;;5089038;28;20660;-69
2023/08/02 01:33:47;;;;;;;4.72;2.10;;;15.90;99.90;;;;;;5084201;28;20612;-69
2023/08/02 01:36:14;;;;;;;6.97;2.30;;;16.00;99.90;;;;;;5087426;28;20223;-69
2023/08/02 01:38:42;;;;;;;4.20;2.47;;;15.90;99.90;;;;;;5069157;28;20821;-69
2023/08/02 01:41:09;;;;;;;4.38;2.20;;;15.90;99.90;;;;;;5087005;28;20230;-69
2023/08/02 01:43:37;;;;;;;3.63;3.15;;;16.00;99.90;;;;;;5089604;28;20314;-70
2023/08/02 01:46:04;;;;;;;3.15;2.58;;;15.20;99.90;;;;;;5089561;28;20219;-70
2023/08/02 01:48:31;;;;;;;2.95;2.35;;;16.00;99.90;;;;;;5088595;28;20219;-69
2023/08/02 01:51:01;;;;;;;4.90;1.90;;;16.00;99.90;;;;;;5079880;28;20223;-70
2023/08/02 01:53:28;;;;;;;5.82;1.90;;;15.90;99.90;;;;;;5069164;28;20238;-69
2023/08/02 01:55:56;;;;;;;5.13;2.22;;;16.00;99.90;;;;;;5088253;28;20611;-70
2023/08/02 01:58:23;;;;;;;7.68;2.03;;;16.00;99.90;;;;;;5092912;28;20321;-69
2023/08/02 02:00:49;;;;;;;4.32;2.05;;;15.90;99.90;;;;;;5093697;28;20214;-69
2023/08/02 02:03:16;;;;;;;4.00;2.22;;;16.00;99.90;;;;;;5094103;28;20195;-69
2023/08/02 02:05:52;;;;;;;7.15;2.55;;;16.00;99.90;;;;;;5085532;28;20480;-70
2023/08/02 02:08:18;;;;;;;6.32;2.47;;;15.90;99.90;;;;;;5076997;28;20218;-69
2023/08/02 02:10:49;;;;;;;4.97;2.35;;;16.00;99.90;;;;;;5087099;28;20219;-70
2023/08/02 02:13:18;;;;;;;2.38;2.17;;;16.00;99.90;;;;;;5093713;28;20568;-71
2023/08/02 02:15:44;;;;;;;4.70;2.65;;;16.00;99.90;;;;;;5093558;28;20191;-69
2023/08/02 02:18:11;;;;;;;5.78;2.38;;;16.00;99.90;;;;;;5095614;28;20695;-69
2023/08/02 02:20:38;;;;;;;2.45;2.00;;;16.00;99.90;;;;;;5082081;28;20215;-70
2023/08/02 02:23:05;;;;;;;4.00;2.30;;;15.90;99.90;;;;;;5090378;28;20196;-70
2023/08/02 02:25:32;;;;;;;7.78;2.42;;;15.90;99.90;;;;;;5074313;28;20207;-69
2023/08/02 02:27:59;;;;;;;5.78;2.17;;;16.20;99.90;;;;;;5091686;28;20571;-70
2023/08/02 02:30:27;;;;;;;3.17;2.30;;;16.00;99.90;;;;;;5097015;28;20209;-69
2023/08/02 02:32:54;;;;;;;4.88;1.88;;;15.90;99.90;;;;;;5090024;27;20204;-69
2023/08/02 02:35:21;;;;;;;3.67;2.17;;;15.90;99.90;;;;;;5095186;28;20192;-69
2023/08/02 02:37:47;;;;;;;5.03;2.15;;;15.60;99.90;;;;;;5081818;28;20203;-69
2023/08/02 02:40:14;;;;;;;3.75;1.85;;;15.90;99.90;;;;;;5074068;28;20208;-69
2023/08/02 02:42:41;;;;;;;5.28;2.00;;;15.90;99.90;;;;;;5093148;28;20195;-69
2023/08/02 02:45:09;;;;;;;6.25;2.35;;;15.90;99.90;;;;;;5089827;28;20328;-69
2023/08/02 02:47:38;;;;;;;2.65;1.80;;;15.90;99.90;;;;;;5092998;28;20199;-69
2023/08/02 02:50:05;;;;;;;4.72;2.17;;;15.90;99.90;;;;;;5088728;28;20200;-69
2023/08/02 02:52:32;;;;;;;3.15;2.05;;;15.80;99.90;;;;;;5084173;28;20582;-69
2023/08/02 02:54:59;;;;;;;2.00;1.80;;;15.90;99.90;;;;;;5073785;28;20200;-69
2023/08/02 02:57:26;;;;;;;2.50;2.03;;;15.80;99.90;;;;;;5095668;28;20196;-69
2023/08/02 02:59:53;;;;;;;2.20;2.00;;;15.90;99.90;;;;;;5090884;28;21437;-70
2023/08/02 03:02:20;;;;;;;6.55;1.80;;;15.80;99.90;;;;;;5095841;28;20195;-69
2023/08/02 03:04:48;;;;;;;3.70;2.35;;;15.90;99.90;;;;;;5091243;28;20200;-69
2023/08/02 03:07:15;;;;;;;4.68;2.00;;;15.90;99.90;;;;;;5082888;28;20207;-70
2023/08/02 03:09:42;;;;;;;3.17;1.95;;;;;;;;;;5082495;28;20199;-70
2023/08/02 03:12:09;;;;;;;4.53;2.67;;;16.00;99.90;;;;;;5082816;28;20239;-69
2023/08/02 03:14:36;;;;;;;3.47;2.03;;;15.90;99.90;;;;;;5089446;28;20219;-70
2023/08/02 03:17:03;;;;;;;3.13;2.20;;;16.00;99.90;;;;;;5085008;28;20220;-69
2023/08/02 03:19:30;;;;;;;3.80;2.13;;;15.90;99.90;;;;;;5091488;28;20230;-69
2023/08/02 03:21:58;;;;;;;3.55;2.17;;;15.90;99.90;;;;;;5080091;28;20709;-70
2023/08/02 03:24:25;;;;;;;6.32;2.35;;;15.90;99.90;;;;;;5091066;28;20188;-69
2023/08/02 03:26:51;;;;;;;9.63;2.67;;;15.90;99.90;;;;;;5066791;28;20207;-70
2023/08/02 03:29:18;;;;;;;5.20;2.33;;;15.90;99.90;;;;;;5093699;28;20219;-69
2023/08/02 03:31:45;;;;;;;3.80;2.25;;;16.00;99.90;;;;;;5090991;28;20184;-69
2023/08/02 03:34:12;;;;;;;4.10;2.03;;;16.00;99.90;;;;;;5092346;28;20196;-69
2023/08/02 03:36:42;;;;;;;6.05;2.08;;;15.90;99.90;;;;;;5086607;28;20192;-71
2023/08/02 03:39:10;;;;;;;4.20;2.30;;;16.00;99.90;;;;;;5085372;28;20227;-69
2023/08/02 03:41:37;;;;;;;5.28;2.22;;;16.00;99.90;;;;;;5071204;28;20647;-70
2023/08/02 03:44:05;;;;;;;2.92;1.90;;;15.90;99.90;;;;;;5090303;28;20210;-69
2023/08/02 03:46:32;;;;;;;6.88;2.13;;;16.00;99.90;;;;;;5090846;28;20196;-69
2023/08/02 03:48:58;;;;;;;4.18;1.88;;;16.00;99.90;;;;;;5094087;28;20210;-69
2023/08/02 03:51:26;;;;;;;2.65;2.15;;;15.90;99.90;;;;;;5097142;28;20676;-69
2023/08/02 03:53:53;;;;;;;7.63;2.50;;;15.90;99.90;;;;;;5086808;28;20773;-69
2023/08/02 03:56:21;;;;;;;4.90;2.67;;;15.90;99.90;;;;;;5077624;28;20543;-69
2023/08/02 03:58:48;;;;;;;4.18;2.08;;;15.90;99.90;;;;;;5093092;28;20254;-70
2023/08/02 04:01:14;;;;;;;3.97;2.63;;;15.90;99.90;;;;;;5094610;28;20198;-70
2023/08/02 04:03:41;;;;;;;6.70;2.00;;;15.80;99.90;;;;;;5097145;28;20295;-70
2023/08/02 04:06:08;;;;;;;6.25;2.50;;;15.90;99.90;;;;;;5093225;28;20210;-69
2023/08/02 04:08:35;;;;;;;6.75;2.42;;;15.90;99.90;;;;;;5091219;28;20207;-69
2023/08/02 04:11:04;;;;;;;9.70;2.92;;;15.90;99.90;;;;;;5075324;28;20212;-69
2023/08/02 04:13:33;;;;;;;5.82;2.25;;;15.80;99.90;;;;;;5096631;28;20203;-69
2023/08/02 04:16:02;;;;;;;6.13;3.10;;;15.80;99.90;;;;;;5093961;28;20862;-69
2023/08/02 04:18:28;;;;;;;3.40;2.53;;;15.70;99.90;;;;;;5096239;28;20199;-70
2023/08/02 04:20:55;;;;;;;7.30;2.83;;;15.80;99.90;;;;;;5092613;28;20599;-70
2023/08/02 04:23:22;;;;;;;5.18;2.42;;;15.90;99.90;;;;;;5093576;28;20219;-69
2023/08/02 04:25:49;;;;;;;8.30;3.05;;;15.80;99.90;;;;;;5084901;27;20207;-69
2023/08/02 04:28:16;;;;;;;7.88;2.67;;;15.90;99.90;;;;;;5078408;28;20699;-69
2023/08/02 04:30:49;;;;;;;7.40;2.95;;;15.90;99.90;;;;;;5093189;28;20198;-69
2023/08/02 04:33:16;;;;;;;4.47;2.80;;;16.00;99.90;;;;;;5096368;28;20218;-69
2023/08/02 04:35:43;;;;;;;6.90;2.97;;;15.30;99.90;;;;;;5093631;28;20196;-69
2023/08/02 04:38:09;;;;;;;7.15;3.00;;;15.90;99.90;;;;;;5096932;28;20195;-69
2023/08/02 04:40:38;;;;;;;9.07;2.83;;;16.00;99.90;;;;;;5086173;28;20231;-69
2023/08/02 04:43:05;;;;;;;4.32;2.40;;;16.00;99.90;;;;;;5073545;28;20230;-69
2023/08/02 04:45:32;;;;;;;5.70;2.80;;;16.00;99.90;;;;;;5096334;28;20196;-69
2023/08/02 04:48:00;;;;;;;9.20;3.13;;;17.60;99.90;;;;;;5092833;28;20203;-69
2023/08/02 04:50:27;;;;;;;5.10;2.75;;;16.10;99.90;;;;;;5095475;28;20197;-69
2023/08/02 04:52:54;;;;;;;4.70;2.45;;;16.10;99.90;;;;;;5089993;28;20195;-69
2023/08/02 04:55:20;;;;;;;5.05;2.60;;;16.10;99.90;;;;;;5093022;28;20199;-69
2023/08/02 04:57:48;;;;;;;5.00;2.83;;;16.20;99.90;;;;;;5072010;28;20307;-69
2023/08/02 05:00:16;;;;;;;9.65;2.70;;;16.20;99.90;;;;;;5091405;28;20700;-69
2023/08/02 05:02:43;;;;;;;7.32;2.67;;;16.20;99.90;;;;;;5093902;28;20199;-70
2023/08/02 05:05:11;;;;;;;6.78;3.28;;;16.00;99.90;;;;;;5091727;28;20196;-69
2023/08/02 05:07:39;;;;;;;9.82;3.03;;;16.20;99.90;;;;;;5094544;28;20203;-69
2023/08/02 05:10:07;;;;;;;4.75;2.45;;;16.20;99.90;;;;;;5094886;28;20195;-69
2023/08/02 05:12:35;;;;;;;11.52;2.95;;;16.20;99.90;;;;;;5084887;28;20207;-69
2023/08/02 05:15:02;;;;;;;5.28;3.22;;;16.20;99.90;;;;;;5079676;28;20202;-69
2023/08/02 05:17:30;;;;;;;5.13;2.38;;;16.20;99.90;;;;;;5093809;28;20222;-69
2023/08/02 05:19:57;;;;;;;6.80;2.30;;;16.20;99.90;;;;;;5090919;28;20242;-69
2023/08/02 05:22:25;;;;;;;5.40;2.78;;;16.20;99.90;;;;;;5093069;28;20964;-69
2023/08/02 05:24:52;;;;;;;4.72;2.53;;;16.20;99.90;;;;;;5086308;28;20977;-69
2023/08/02 05:27:19;;;;;;;10.40;2.63;;;16.30;99.90;;;;;;5084827;28;20319;-69
2023/08/02 05:29:46;;;;;;;9.77;2.88;;;16.30;99.90;;;;;;5072247;28;20227;-69
2023/08/02 05:32:13;;;;;;;8.75;2.90;;;16.20;99.90;;;;;;5092619;28;20219;-69
2023/08/02 05:34:40;;;;;;;5.47;2.88;;;16.20;99.90;;;;;;5092341;28;20272;-69
2023/08/02 05:37:07;;;;;;;6.93;2.88;;;16.30;99.90;;;;;;5091271;28;20199;-69
2023/08/02 05:39:35;;;;;;;5.90;2.80;;;16.30;99.90;;;;;;5096055;28;20330;-70
2023/08/02 05:42:02;;;;;;;6.38;2.40;;;15.20;99.90;;;;;;5083017;28;20203;-69
2023/08/02 05:44:29;;;;;;;11.07;3.10;;;16.30;99.90;;;;;;5076187;28;20199;-69
2023/08/02 05:46:55;;;;;;;8.30;2.80;;;16.40;99.90;;;;;;5092367;28;20187;-69
2023/08/02 05:49:22;;;;;;;5.40;2.75;;;16.40;99.90;;;;;;5094659;28;20205;-69
2023/08/02 05:51:49;;;;;;;8.30;2.85;;;16.40;99.90;;;;;;5090246;28;20196;-69
2023/08/02 05:54:16;;;;;;;5.38;2.90;;;16.40;99.90;;;;;;5090215;28;20199;-69
2023/08/02 05:56:45;;;;;;;8.60;3.30;;;16.30;99.90;;;;;;5094434;28;20569;-69
2023/08/02 05:59:11;;;;;;;10.18;2.65;;;16.40;99.90;;;;;;5066108;28;20238;-69
2023/08/02 06:01:38;;;;;;;5.43;2.53;;;16.40;99.90;;;;;;5087986;27;20192;-69
2023/08/02 06:04:05;;;;;;;22.05;3.10;;;16.50;99.90;;;;;;5092967;28;20203;-69
2023/08/02 06:06:32;;;;;;;9.07;3.30;;;16.50;99.90;;;;;;5094962;28;20298;-69
2023/08/02 06:08:59;;;;;;;9.05;2.45;;;16.50;99.90;;;;;;5092620;28;20195;-70
2023/08/02 06:11:26;;;;;;;5.05;2.92;;;16.50;99.90;;;;;;5095094;28;20200;-69
2023/08/02 06:13:54;;;;;;;5.60;2.60;;;15.50;99.90;;;;;;5092702;28;20199;-69
2023/08/02 06:16:22;;;;;;;6.88;2.53;;;16.50;99.90;;;;;;5071570;28;20752;-69
2023/08/02 06:18:49;;;;;;;7.03;2.63;;;16.50;99.90;;;;;;5090509;28;20200;-69
2023/08/02 06:21:16;;;;;;;4.35;2.53;;;16.50;99.90;;;;;;5094847;28;20223;-69
2023/08/02 06:23:43;;;;;;;6.32;3.38;;;16.50;99.90;;;;;;5093318;28;20199;-70
2023/08/02 06:26:09;;;;;;;5.28;2.70;;;16.50;99.90;;;;;;5093175;28;20188;-70
2023/08/02 06:28:37;;;;;;;4.22;2.83;;;;;;;;;;5093869;28;20706;-69
2023/08/02 06:31:05;;;;;;;6.43;2.95;;;16.50;99.90;;;;;;5063700;28;20211;-69
2023/08/02 06:33:32;;;;;;;7.10;2.83;;;16.50;99.90;;;;;;5095379;28;20223;-69
2023/08/02 06:35:58;;;;;;;6.95;2.92;;;16.50;99.90;;;;;;5087589;28;20220;-70
2023/08/02 06:38:25;;;;;;;8.55;3.53;;;16.60;99.90;;;;;;5091149;28;20337;-70
2023/08/02 06:40:52;;;;;;;7.38;3.45;;;16.70;99.90;;;;;;5086335;28;20867;-70
2023/08/02 06:43:19;;;;;;;9.07;3.15;;;16.60;99.90;;;;;;5090824;28;20203;-69
2023/08/02 06:45:46;;;;;;;10.95;3.28;;;17.40;99.90;;;;;;5084261;28;20200;-70
2023/08/02 06:48:19;;;;;;;7.55;3.38;;;16.80;99.90;;;;;;5072423;28;21465;-69
2023/08/02 06:50:46;;;;;;;7.25;3.30;;;16.80;99.90;;;;;;5092104;28;20191;-69
2023/08/02 06:53:13;;;;;;;8.05;3.10;;;16.90;99.90;;;;;;5092552;28;20691;-70
2023/08/02 06:55:40;;;;;;;4.93;3.15;;;16.80;99.90;;;;;;5091606;28;20200;-69
2023/08/02 06:58:07;;;;;;;9.63;3.42;;;16.80;99.90;;;;;;5091851;28;20195;-70
2023/08/02 07:00:33;;;;;;;10.25;3.50;;;16.90;99.90;;;;;;5083638;28;20727;-70
2023/08/02 07:03:01;;;;;;;7.75;3.10;;;16.90;99.90;;;;;;5072775;28;20212;-69
2023/08/02 07:05:29;;;;;;;7.63;3.90;;;16.80;99.90;;;;;;5091482;28;20219;-69
2023/08/02 07:07:56;;;;;;;9.35;4.25;;;16.90;99.90;;;;;;5091610;28;20215;-69
2023/08/02 07:10:23;;;;;;;7.80;4.15;;;16.90;99.90;;;;;;5090408;28;20292;-69
2023/08/02 07:12:50;;;;;;;10.45;4.18;;;17.10;99.90;;;;;;5090636;28;20195;-70
2023/08/02 07:15:18;;;;;;;11.25;4.63;;;17.00;99.90;;;;;;5086270;28;20208;-69
2023/08/02 07:17:46;;;;;;;15.32;5.00;;;17.10;99.90;;;;;;5087125;28;20561;-71
2023/08/02 07:20:13;;;;;;;13.02;5.38;;;17.00;99.90;;;;;;5072910;28;20722;-69
2023/08/02 07:22:44;;;;;;;8.18;4.72;;;17.00;99.90;;;;;;5092082;28;20577;-69
2023/08/02 07:25:11;;;;;;;12.18;4.85;;;17.20;99.90;;;;;;5097159;28;20644;-69
2023/08/02 07:27:39;;;;;;;9.20;4.30;;;17.30;99.90;;;;;;5094524;28;20664;-69
2023/08/02 07:30:07;;;;;;;9.88;4.38;;;17.30;99.90;;;;;;5097043;28;20454;-69
2023/08/02 07:32:34;;;;;;;8.05;4.22;;;17.40;99.90;;;;;;5090469;28;20213;-70
2023/08/02 07:35:01;;;;;;;10.10;4.03;;;;;;;;;;5075033;28;20227;-70
2023/08/02 07:37:28;;;;;;;7.60;4.28;;;17.40;99.90;;;;;;5096706;28;20215;-69
2023/08/02 07:39:56;;;;;;;10.77;4.05;;;17.30;99.90;;;;;;5094545;28;20223;-69
2023/08/02 07:42:23;;;;;;;8.13;4.18;;;17.30;99.90;;;;;;5096769;28;20203;-69
2023/08/02 07:45:02;;;;;;;19.30;4.03;;;17.40;99.90;;;;;;5094832;28;20553;-69
2023/08/02 07:47:29;;;;;;;11.80;4.43;;;17.30;99.90;;;;;;5090164;28;20214;-69
2023/08/02 07:49:56;;;;;;;4.45;3.10;;;17.40;99.90;;;;;;5074159;28;20949;-70
2023/08/02 07:52:22;;;;;;;9.35;3.60;;;17.50;99.90;;;;;;5098321;28;20196;-69
2023/08/02 07:54:49;;;;;;;7.25;3.88;;;17.20;99.90;;;;;;5093707;28;20269;-72
2023/08/02 07:57:17;;;;;;;11.70;3.72;;;17.50;99.90;;;;;;5099662;28;20848;-69
2023/08/02 07:59:44;;;;;;;11.75;4.22;;;17.60;99.90;;;;;;5090674;28;20226;-69
2023/08/02 08:02:11;;;;;;;7.78;3.33;;;17.60;99.90;;;;;;5086421;28;20203;-69
2023/08/02 08:04:38;;;;;;;7.18;3.28;;;17.60;99.90;;;;;;5086494;28;20202;-69
2023/08/02 08:07:05;;;;;;;12.15;3.50;;;17.50;99.90;;;;;;5082312;28;20286;-69
2023/08/02 08:09:33;;;;;;;5.55;3.03;;;17.60;99.90;;;;;;5097592;28;20199;-69
2023/08/02 08:12:03;;;;;;;5.30;2.42;;;17.60;99.90;;;;;;5094760;28;20261;-69
2023/08/02 08:14:32;;;;;;;7.93;2.95;;;17.60;99.90;;;;;;5096006;28;20582;-69
2023/08/02 08:16:59;;;;;;;7.25;3.13;;;17.70;99.90;;;;;;5092841;28;21416;-69
2023/08/02 08:19:27;;;;;;;6.22;2.85;;;17.70;99.90;;;;;;5085044;28;20197;-69
2023/08/02 08:21:54;;;;;;;6.47;2.80;;;17.70;99.90;;;;;;5071435;28;20226;-69
2023/08/02 08:24:21;;;;;;;8.55;2.90;;;17.70;99.90;;;;;;5090604;28;20191;-69
2023/08/02 08:26:48;;;;;;;14.57;3.22;;;17.80;99.90;;;;;;5088511;28;20301;-69
2023/08/02 08:29:14;;;;;;;9.52;3.08;;;18.00;99.90;;;;;;5092581;28;20219;-70
2023/08/02 08:31:43;;;;;;;6.28;2.90;;;19.00;99.90;;;;;;5089638;28;20874;-70
2023/08/02 08:34:09;;;;;;;5.78;2.88;;;17.80;99.90;;;;;;5084738;28;20200;-69
2023/08/02 08:36:36;;;;;;;6.15;2.58;;;17.80;99.90;;;;;;5074094;28;20210;-69
2023/08/02 08:39:03;;;;;;;5.55;2.47;;;17.70;99.90;;;;;;5086782;28;20219;-69
2023/08/02 08:41:30;;;;;;;6.20;2.60;;;17.70;99.90;;;;;;5091689;28;20247;-69
2023/08/02 08:43:57;;;;;;;5.53;2.25;;;17.70;99.90;;;;;;5088737;28;20204;-69
2023/08/02 08:46:25;;;;;;;3.95;2.10;;;17.70;99.90;;;;;;5091047;28;20204;-69
2023/08/02 08:48:53;;;;;;;4.95;2.33;;;17.60;99.90;;;;;;5080564;28;20210;-69
2023/08/02 08:51:23;;;;;;;5.95;2.83;;;17.50;99.90;;;;;;5090643;28;20191;-69
2023/08/02 08:53:50;;;;;;;6.35;2.35;;;17.50;99.90;;;;;;5069470;28;20204;-70
2023/08/02 08:56:22;;;;;;;2.50;2.17;;;17.50;99.90;;;;;;5093695;28;20191;-69
2023/08/02 08:58:50;;;;;;;5.00;2.35;;;17.50;99.90;;;;;;5085537;28;20199;-70
2023/08/02 09:01:18;;;;;;;8.77;2.47;;;17.40;99.90;;;;;;5093823;28;20231;-69
2023/08/02 09:03:45;;;;;;;6.57;2.42;;;17.50;99.90;;;;;;5088726;28;20286;-70
2023/08/02 09:06:15;;;;;;;4.68;2.15;;;17.50;99.90;;;;;;5081732;28;20200;-69
2023/08/02 09:08:44;;;;;;;3.95;2.13;;;17.50;99.90;;;;;;5074014;28;20212;-69
2023/08/02 09:11:11;;;;;;;3.35;2.47;;;17.50;99.90;;;;;;5092063;28;20196;-69
2023/08/02 09:13:38;;;;;;;4.25;1.98;;;;;;;;;;5091022;28;20191;-70
2023/08/02 09:16:09;;;;;;;3.35;1.88;;;17.50;99.90;;;;;;5088458;28;20207;-69
2023/08/02 09:18:38;;;;;;;12.52;2.25;;;17.50;99.90;;;;;;5088172;28;20200;-70
2023/08/02 09:21:06;;;;;;;4.45;2.20;;;17.50;99.90;;;;;;5085827;27;21034;-69
2023/08/02 09:23:34;;;;;;;4.10;2.47;;;17.40;99.90;;;;;;5091397;28;20205;-69
2023/08/02 09:26:11;;;;;;;4.65;2.60;;;17.50;99.90;;;;;;5073836;28;20203;-69
2023/08/02 09:28:38;;;;;;;4.43;2.20;;;17.50;99.90;;;;;;5088327;28;20228;-70
2023/08/02 09:31:16;;;;;;;4.95;1.92;;;17.40;99.90;;;;;;5088437;28;20211;-69
2023/08/02 09:33:50;;;;;;;7.35;2.85;;;17.40;99.90;;;;;;5090052;28;20199;-69
2023/08/02 09:36:28;;;;;;;4.70;2.97;;;17.40;99.90;;;;;;5085022;28;20281;-69
2023/08/02 09:38:58;;;;;;;10.18;2.60;;;17.40;99.90;;;;;;5070774;28;20207;-70
2023/08/02 09:41:25;;;;;;;6.45;2.85;;;17.30;99.90;;;;;;5089877;28;20240;-69
2023/08/02 09:43:53;;;;;;;7.78;2.92;;;17.30;99.90;;;;;;5086182;28;21136;-69
2023/08/02 09:46:25;;;;;;;4.40;2.40;;;17.30;99.90;;;;;;5086448;28;20242;-69
2023/08/02 09:48:51;;;;;;;4.63;2.78;;;17.20;99.90;;;;;;5086225;28;20224;-70
2023/08/02 09:51:18;;;;;;;6.60;2.80;;;17.30;99.90;;;;;;5084537;28;20219;-69
2023/08/02 09:53:54;;;;;;;7.25;2.50;;;17.40;99.90;;;;;;5076070;28;20211;-70
2023/08/02 09:56:24;;;;;;;6.35;2.88;;;17.30;99.90;;;;;;5090665;28;20841;-69
2023/08/02 09:58:55;;;;;;;4.63;2.40;;;17.30;99.90;;;;;;5087337;28;20211;-70
2023/08/02 10:01:23;;;;;;;3.65;2.20;;;17.40;99.90;;;;;;5088303;28;20238;-69
2023/08/02 10:03:55;;;;;;;7.40;2.75;;;17.40;99.90;;;;;;5087205;28;20196;-72
2023/08/02 10:06:24;;;;;;;6.57;2.83;;;17.40;99.90;;;;;;5085289;28;20203;-69
2023/08/02 10:08:54;;;;;;;4.43;2.97;;;16.70;99.90;;;;;;5085836;28;20200;-70
2023/08/02 10:11:24;;;;;;;6.90;3.05;;;17.50;99.90;;;;;;5070856;28;20208;-69
2023/08/02 10:13:52;;;;;;;5.35;3.03;;;17.40;99.90;;;;;;5086730;28;20195;-69
2023/08/02 10:16:20;;;;;;;8.40;3.03;;;17.30;99.90;;;;;;5091727;28;20785;-69
2023/08/02 10:18:48;;;;;;;5.07;2.97;;;17.40;99.90;;;;;;5089562;28;20195;-70
2023/08/02 10:21:18;;;;;;;4.70;2.60;;;17.50;99.90;;;;;;5087989;28;21374;-69
2023/08/02 10:23:45;;;;;;;4.70;2.80;;;17.80;99.90;;;;;;5086781;28;20204;-70
2023/08/02 10:26:12;;;;;;;4.53;3.08;;;17.70;99.90;;;;;;5068964;28;25049;-69
2023/08/02 10:28:41;;;;;;;4.30;3.20;;;17.80;99.90;;;;;;5087887;28;20606;-69
2023/08/02 10:31:10;;;;;;;5.85;3.17;;;17.80;99.90;;;;;;5082166;28;20207;-69
2023/08/02 10:33:36;;;;;;;8.55;3.17;;;17.80;99.90;;;;;;5087833;28;20196;-69
2023/08/02 10:36:05;;;;;;;4.40;2.55;;;17.80;99.90;;;;;;5089751;28;20199;-69
2023/08/02 10:38:54;;;;;;;6.15;3.22;;;17.80;99.90;;;;;;5087406;28;20200;-69
2023/08/02 10:41:23;;;;;;;6.80;3.72;;;17.70;99.90;;;;;;5064098;28;20314;-69
2023/08/02 10:44:11;;;;;;;3.83;2.70;;;17.60;99.90;;;;;;5087041;28;20196;-71
2023/08/02 10:46:38;;;;;;;6.28;3.20;;;17.50;99.90;;;;;;5093236;28;20196;-70
2023/08/02 10:49:38;;;;;;;7.07;3.20;;;17.50;99.90;;;;;;5086816;28;20195;-69
2023/08/02 10:52:28;;;;;;;3.83;2.90;;;17.60;99.90;;;;;;5087932;28;20250;-69
2023/08/02 10:55:15;;;;;;;5.47;3.05;;;17.60;99.90;;;;;;5087623;28;20215;-69
2023/08/02 10:58:05;;;;;;;4.75;2.92;;;17.60;99.90;;;;;;5066293;28;20558;-72
2023/08/02 11:00:34;;;;;;;4.00;2.63;;;17.60;99.90;;;;;;5088872;28;20196;-69
2023/08/02 11:03:01;;;;;;;4.72;2.75;;;17.60;99.90;;;;;;5085022;28;20234;-69
2023/08/02 11:05:46;;;;;;;4.40;3.03;;;17.50;99.90;;;;;;5090624;28;20200;-69
2023/08/02 11:08:13;;;;;;;5.50;2.90;;;17.50;99.90;;;;;;5082092;28;20203;-69
2023/08/02 11:10:48;;;;;;;3.72;2.90;;;17.30;99.90;;;;;;5090761;28;20202;-70
2023/08/02 11:13:15;;;;;;;4.00;2.70;;;17.50;99.90;;;;;;5066408;28;20209;-69
2023/08/02 11:15:43;;;;;;;3.83;2.47;;;17.40;99.90;;;;;;5087124;28;20196;-69
2023/08/02 11:18:10;;;;;;;8.13;3.03;;;17.30;99.90;;;;;;5086282;28;20195;-69
2023/08/02 11:20:38;;;;;;;6.47;2.88;;;17.40;99.90;;;;;;5089987;28;20199;-71
2023/08/02 11:23:23;;;;;;;5.05;2.47;;;16.20;99.90;;;;;;5083116;28;20189;-69
2023/08/02 11:25:50;;;;;;;7.65;2.80;;;17.40;99.90;;;;;;5083389;28;21292;-70
2023/08/02 11:28:17;;;;;;;4.63;2.67;;;17.40;99.90;;;;;;5070916;28;20880;-69
2023/08/02 11:30:50;;;;;;;4.75;2.35;;;17.30;99.90;;;;;;5086672;28;20215;-72
2023/08/02 11:33:17;;;;;;;6.80;2.90;;;17.30;99.90;;;;;;5089029;28;20210;-70
2023/08/02 11:35:44;;;;;;;5.05;2.55;;;17.30;99.90;;;;;;5087163;28;20198;-69
2023/08/02 11:38:13;;;;;;;3.20;2.45;;;17.20;99.90;;;;;;5085697;28;21072;-70
2023/08/02 11:40:40;;;;;;;5.63;2.58;;;17.20;99.90;;;;;;5087430;28;20200;-70
2023/08/02 11:43:09;;;;;;;4.75;2.83;;;17.30;99.90;;;;;;5069266;28;20207;-70
2023/08/02 11:45:36;;;;;;;5.22;2.97;;;17.30;99.90;;;;;;5088926;28;20639;-70
2023/08/02 11:48:05;;;;;;;4.05;2.42;;;17.40;99.90;;;;;;5081843;28;20203;-70
2023/08/02 11:50:33;;;;;;;3.83;2.50;;;17.40;99.90;;;;;;5090393;28;20206;-69
2023/08/02 11:53:07;;;;;;;7.35;3.00;;;17.30;99.90;;;;;;5081122;28;20223;-70
2023/08/02 11:55:36;;;;;;;3.72;2.67;;;17.30;99.90;;;;;;5087533;28;20266;-70
2023/08/02 11:58:05;;;;;;;5.38;2.63;;;17.30;99.90;;;;;;5083356;28;20223;-70
2023/08/02 12:00:33;;;;;;;4.00;2.28;;;17.40;99.90;;;;;;5068856;28;20246;-70
2023/08/02 12:03:12;;;;;;;5.55;2.53;;;17.40;99.90;;;;;;5085471;28;20227;-70
2023/08/02 12:05:40;;;;;;;2.63;2.42;;;;;;;;;;5088431;28;20757;-70
2023/08/02 12:08:11;;;;;;;3.08;2.40;;;17.40;99.90;;;;;;5084664;28;20227;-70
2023/08/02 12:10:39;;;;;;;2.42;2.22;;;17.40;99.90;;;;;;5094873;28;20211;-70
2023/08/02 12:13:10;;;;;;;2.90;2.35;;;17.50;99.90;;;;;;5082012;27;20208;-70
2023/08/02 12:15:37;;;;;;;3.80;2.83;;;17.50;99.90;;;;;;5071887;28;20226;-70
2023/08/02 12:18:05;;;;;;;3.17;2.40;;;17.50;99.90;;;;;;5095349;28;20568;-70
2023/08/02 12:20:34;;;;;;;8.85;3.05;;;17.50;99.90;;;;;;5091747;28;20206;-70
2023/08/02 12:23:01;;;;;;;5.82;2.60;;;17.10;99.90;;;;;;5090233;28;20230;-70
2023/08/02 12:25:42;;;;;;;2.80;2.22;;;17.50;99.90;;;;;;5095292;28;20196;-70
2023/08/02 12:28:09;;;;;;;2.15;1.65;;;17.50;99.90;;;;;;5085505;28;20264;-70
2023/08/02 12:30:37;;;;;;;2.55;2.35;;;17.50;99.90;;;;;;5075451;28;20223;-70
2023/08/02 12:33:04;;;;;;;4.00;2.90;;;17.50;99.90;;;;;;5089013;28;20203;-71
2023/08/02 12:35:31;;;;;;;2.70;2.00;;;17.50;99.90;;;;;;5094657;28;20203;-70
2023/08/02 12:37:59;;;;;;;3.38;2.17;;;17.50;99.90;;;;;;5095965;28;20195;-70
2023/08/02 12:40:26;;;;;;;4.40;2.17;;;17.50;99.90;;;;;;5092733;28;20196;-69
2023/08/02 12:42:52;;;;;;;5.63;2.20;;;17.60;99.90;;;;;;5097916;27;20238;-70
2023/08/02 12:45:25;;;;;;;2.33;1.70;;;17.50;99.90;;;;;;5066267;28;20207;-70
2023/08/02 12:47:52;;;;;;;2.22;2.03;;;17.50;99.90;;;;;;5092566;28;20210;-70
2023/08/02 12:50:19;;;;;;;3.08;1.92;;;17.60;99.90;;;;;;5085254;28;20922;-70
2023/08/02 12:52:45;;;;;;;2.00;1.80;;;17.50;99.90;;;;;;5092370;28;20207;-70